Time;durP1;ratioP1;P1;durP2;ratioP2;P2;SDS_P1;SDS_P2;PMS_P1;PMS_P2;Temp;Humidity;BMP_temperature;BMP_pressure;BME280_temperature;BME280_humidity;BME280_pressure;Samples;Min_cycle;Max_cycle;Signal;HPM_P1;HPM_P2
2023/03/12 00:01:25;;;;;;;9.15;6.43;;;-0.90;99.90;;;;;;4978185;28;20038;-83
2023/03/12 00:03:52;;;;;;;13.75;7.32;;;-0.90;99.90;;;;;;4992382;28;20456;-83
2023/03/12 00:06:19;;;;;;;11.00;7.05;;;-0.90;99.90;;;;;;4957459;28;20034;-82
2023/03/12 00:08:46;;;;;;;12.05;6.72;;;-0.90;99.90;;;;;;4988923;28;21324;-82
2023/03/12 00:11:14;;;;;;;16.25;8.15;;;-0.90;99.90;;;;;;4973794;28;20034;-82
2023/03/12 00:13:41;;;;;;;9.98;6.70;;;-1.00;99.90;;;;;;4989568;28;20038;-83
2023/03/12 00:16:10;;;;;;;10.88;6.68;;;-1.00;99.90;;;;;;4989762;28;20439;-82
2023/03/12 00:18:36;;;;;;;13.00;6.80;;;-1.00;99.90;;;;;;4990340;28;20034;-83
2023/03/12 00:21:02;;;;;;;11.05;7.10;;;-1.10;99.90;;;;;;4958195;28;20189;-83
2023/03/12 00:23:28;;;;;;;12.55;7.50;;;-1.10;99.90;;;;;;4995064;28;20197;-83
2023/03/12 00:25:53;;;;;;;14.43;8.25;;;-1.10;99.90;;;;;;4988619;28;20042;-83
2023/03/12 00:28:19;;;;;;;14.18;7.60;;;-0.90;99.90;;;;;;4979281;28;20100;-83
2023/03/12 00:30:45;;;;;;;11.18;7.00;;;-1.20;99.90;;;;;;4983861;28;20034;-83
2023/03/12 00:33:11;;;;;;;15.77;8.23;;;-1.20;99.90;;;;;;4989278;28;20406;-83
2023/03/12 00:35:38;;;;;;;15.30;7.93;;;-1.20;99.90;;;;;;4989190;28;20038;-83
2023/03/12 00:38:04;;;;;;;14.90;8.07;;;-1.20;99.90;;;;;;4976421;28;20042;-83
2023/03/12 00:40:29;;;;;;;13.98;7.90;;;-1.20;99.90;;;;;;4989753;28;20407;-83
2023/03/12 00:42:55;;;;;;;11.20;6.85;;;-1.20;99.90;;;;;;4984838;28;20042;-83
2023/03/12 00:45:21;;;;;;;13.18;7.90;;;-1.30;99.90;;;;;;4987416;28;20847;-83
2023/03/12 00:47:46;;;;;;;11.77;7.47;;;-1.30;99.90;;;;;;4975282;28;20093;-83
2023/03/12 00:50:12;;;;;;;11.68;7.57;;;-0.50;99.90;;;;;;4956118;28;21243;-84
2023/03/12 00:52:38;;;;;;;12.95;7.53;;;-1.10;99.90;;;;;;4987915;28;20126;-84
2023/03/12 00:55:04;;;;;;;13.30;6.60;;;-1.30;99.90;;;;;;4988405;28;20514;-84
2023/03/12 00:57:29;;;;;;;11.30;6.90;;;-1.30;99.90;;;;;;4990710;28;20042;-83
2023/03/12 00:59:55;;;;;;;14.02;6.95;;;-1.30;99.90;;;;;;4993684;28;20710;-83
2023/03/12 01:02:21;;;;;;;11.93;6.80;;;-0.50;99.90;;;;;;4987817;28;20036;-83
2023/03/12 01:04:46;;;;;;;11.68;6.63;;;-1.30;99.90;;;;;;4988940;28;20133;-83
2023/03/12 01:07:12;;;;;;;11.63;6.68;;;-1.30;99.90;;;;;;4989652;28;20042;-83
2023/03/12 01:09:38;;;;;;;13.50;6.45;;;-1.20;99.90;;;;;;4974903;28;20034;-83
2023/03/12 01:12:04;;;;;;;15.55;6.30;;;-1.20;99.90;;;;;;5003353;28;20030;-83
2023/03/12 01:14:30;;;;;;;12.43;6.63;;;-1.20;99.90;;;;;;5019460;28;20053;-83
2023/03/12 01:16:56;;;;;;;11.38;6.82;;;-1.00;99.90;;;;;;5013941;28;20034;-82
2023/03/12 01:19:21;;;;;;;12.60;6.75;;;-1.20;99.90;;;;;;4997051;28;20094;-82
2023/03/12 01:21:47;;;;;;;11.57;6.55;;;-1.10;99.90;;;;;;4978304;28;20061;-83
2023/03/12 01:24:13;;;;;;;11.30;7.55;;;-1.10;99.90;;;;;;4972014;28;20094;-83
2023/03/12 01:26:39;;;;;;;24.77;7.50;;;-1.10;99.90;;;;;;4999059;28;20046;-83
2023/03/12 01:29:04;;;;;;;13.02;7.05;;;-1.10;99.90;;;;;;4994682;28;20030;-83
2023/03/12 01:31:30;;;;;;;12.00;6.70;;;-1.10;99.90;;;;;;4958487;28;20670;-83
2023/03/12 01:33:56;;;;;;;10.77;6.63;;;-1.10;99.90;;;;;;4990721;28;20042;-83
2023/03/12 01:36:28;;;;;;;9.73;6.40;;;-1.10;99.90;;;;;;4972431;28;20074;-83
2023/03/12 01:38:56;;;;;;;12.40;5.85;;;-1.00;99.90;;;;;;4987155;28;20049;-83
2023/03/12 01:41:23;;;;;;;12.85;6.03;;;-1.20;99.90;;;;;;5005969;28;20058;-83
2023/03/12 01:43:49;;;;;;;11.93;5.78;;;-1.20;99.90;;;;;;4975542;28;20133;-83
2023/03/12 01:46:31;;;;;;;8.75;5.40;;;-1.30;99.90;;;;;;5019453;28;20101;-83
2023/03/12 01:49:02;;;;;;;9.25;5.18;;;-1.20;99.90;;;;;;4997261;28;20041;-83
2023/03/12 01:51:33;;;;;;;13.27;5.55;;;-1.00;99.90;;;;;;4987131;28;20136;-83
2023/03/12 01:54:03;;;;;;;6.73;5.10;;;-0.90;99.90;;;;;;5002742;28;20789;-83
2023/03/12 01:56:32;;;;;;;11.77;5.47;;;-1.10;99.90;;;;;;4972445;28;20785;-83
2023/03/12 01:59:02;;;;;;;8.45;4.45;;;-1.10;99.90;;;;;;4996604;28;20134;-83
2023/03/12 02:01:29;;;;;;;7.78;4.65;;;-1.00;99.90;;;;;;4994737;28;20030;-83
2023/03/12 02:03:57;;;;;;;8.75;4.80;;;-1.00;99.90;;;;;;4989836;28;20034;-83
2023/03/12 02:06:33;;;;;;;8.93;4.72;;;-0.90;99.90;;;;;;4985837;28;20117;-83
2023/03/12 02:09:02;;;;;;;9.98;4.18;;;-0.90;99.90;;;;;;4968730;28;20054;-83
2023/03/12 02:11:27;;;;;;;6.72;4.25;;;-0.90;99.90;;;;;;4990688;28;20049;-83
2023/03/12 02:13:53;;;;;;;10.48;4.70;;;-0.80;99.90;;;;;;4996944;28;20034;-83
2023/03/12 02:16:19;;;;;;;8.10;4.47;;;-0.80;99.90;;;;;;4954474;28;20046;-83
2023/03/12 02:18:47;;;;;;;8.38;5.07;;;-0.50;99.90;;;;;;4972011;28;20209;-83
2023/03/12 02:21:21;;;;;;;7.80;5.15;;;-0.70;99.90;;;;;;4975703;28;20043;-83
2023/03/12 02:24:10;;;;;;;7.50;4.30;;;0.10;99.90;;;;;;5009260;28;20034;-83
2023/03/12 02:26:37;;;;;;;10.20;4.88;;;-0.70;99.90;;;;;;4989699;28;20038;-83
2023/03/12 02:29:03;;;;;;;11.13;5.47;;;-0.70;99.90;;;;;;4989180;28;20092;-83
2023/03/12 02:31:36;;;;;;;10.20;5.47;;;-0.70;99.90;;;;;;4976942;28;20034;-83
2023/03/12 02:34:02;;;;;;;10.27;5.78;;;-0.40;99.90;;;;;;4990510;28;20047;-83
2023/03/12 02:36:28;;;;;;;12.32;5.82;;;-0.50;99.90;;;;;;4975631;28;20466;-83
2023/03/12 02:38:55;;;;;;;9.60;5.20;;;-0.60;99.90;;;;;;4975560;28;20053;-82
2023/03/12 02:41:25;;;;;;;9.73;5.10;;;-0.10;99.90;;;;;;4990575;28;20122;-83
2023/03/12 02:44:23;;;;;;;12.85;5.38;;;-0.60;99.90;;;;;;4977281;28;20042;-83
2023/03/12 02:46:54;;;;;;;10.15;5.22;;;-0.60;99.90;;;;;;4973914;28;20840;-82
2023/03/12 02:49:22;;;;;;;9.40;5.03;;;-0.50;99.90;;;;;;4993622;28;20450;-82
2023/03/12 02:51:48;;;;;;;9.02;5.00;;;-0.60;99.90;;;;;;4991378;28;20050;-83
2023/03/12 02:54:16;;;;;;;19.27;5.20;;;-0.60;99.90;;;;;;4990466;28;20073;-82
2023/03/12 02:56:42;;;;;;;6.75;5.03;;;0.20;99.90;;;;;;4977751;28;20042;-84
2023/03/12 02:59:09;;;;;;;8.45;4.80;;;0.10;99.90;;;;;;4977108;28;20046;-85
2023/03/12 03:01:35;;;;;;;7.82;5.55;;;-0.60;99.90;;;;;;4988638;28;20050;-85
2023/03/12 03:04:04;;;;;;;7.57;4.95;;;-0.10;99.90;;;;;;4988587;28;20121;-82
2023/03/12 03:06:30;;;;;;;7.47;5.15;;;-0.50;99.90;;;;;;4977828;28;20124;-82
2023/03/12 03:08:55;;;;;;;13.85;5.88;;;-0.50;99.90;;;;;;4994864;28;20056;-82
2023/03/12 03:11:23;;;;;;;9.48;5.57;;;-0.50;99.90;;;;;;4958772;28;20046;-82
2023/03/12 03:13:53;;;;;;;8.07;5.57;;;-0.50;99.90;;;;;;4979523;28;20038;-82
2023/03/12 03:16:20;;;;;;;10.75;5.78;;;-0.50;99.90;;;;;;4993435;28;20104;-82
2023/03/12 03:18:46;;;;;;;11.32;6.68;;;-0.50;99.90;;;;;;4991683;28;20178;-82
2023/03/12 03:21:15;;;;;;;9.32;6.15;;;-1.30;99.90;;;;;;4970510;28;20040;-83
2023/03/12 03:23:51;;;;;;;8.55;5.45;;;-0.50;99.90;;;;;;4979516;28;20026;-83
2023/03/12 03:26:20;;;;;;;11.80;5.88;;;-0.50;99.90;;;;;;4976408;28;20525;-83
2023/03/12 03:28:46;;;;;;;14.82;6.53;;;-0.50;99.90;;;;;;4975655;28;20040;-82
2023/03/12 03:31:12;;;;;;;9.20;5.90;;;-0.30;99.90;;;;;;4975112;28;20045;-82
2023/03/12 03:33:38;;;;;;;13.25;5.38;;;-0.40;99.90;;;;;;4977833;28;20373;-83
2023/03/12 03:36:06;;;;;;;10.13;6.32;;;-0.40;99.90;;;;;;4972580;28;20035;-83
2023/03/12 03:38:33;;;;;;;9.88;6.18;;;-0.40;99.90;;;;;;4991017;28;20115;-83
2023/03/12 03:41:00;;;;;;;11.95;6.28;;;-0.40;99.90;;;;;;4993387;28;20047;-83
2023/03/12 03:43:26;;;;;;;11.27;5.97;;;-0.40;99.90;;;;;;4992129;28;20044;-83
2023/03/12 03:46:00;;;;;;;9.95;5.63;;;-0.20;99.90;;;;;;4994033;28;20411;-83
2023/03/12 03:48:26;;;;;;;14.18;6.15;;;-0.50;99.90;;;;;;4993568;28;20122;-83
2023/03/12 03:50:51;;;;;;;15.20;6.30;;;-0.50;99.90;;;;;;4976376;28;20128;-83
2023/03/12 03:53:20;;;;;;;9.70;5.95;;;-0.40;99.90;;;;;;4942291;28;20095;-83
2023/03/12 03:55:46;;;;;;;12.85;6.03;;;-0.40;99.90;;;;;;4975791;28;20038;-82
2023/03/12 03:58:12;;;;;;;9.38;5.82;;;-0.20;99.90;;;;;;4975508;28;20041;-82
2023/03/12 04:00:38;;;;;;;7.80;5.95;;;-0.40;99.90;;;;;;4975019;28;20042;-82
2023/03/12 04:03:04;;;;;;;7.25;5.10;;;0.40;99.90;;;;;;4983570;28;20503;-83
2023/03/12 04:05:30;;;;;;;9.90;5.78;;;-0.40;99.90;;;;;;4974382;28;20396;-83
2023/03/12 04:08:01;;;;;;;11.50;6.45;;;-0.30;99.90;;;;;;4989557;28;20050;-82
2023/03/12 04:10:28;;;;;;;10.35;5.53;;;-0.30;99.90;;;;;;4991550;28;20728;-82
2023/03/12 04:12:54;;;;;;;9.48;6.35;;;-0.30;99.90;;;;;;4992905;28;20132;-82
2023/03/12 04:15:20;;;;;;;12.63;6.43;;;-0.20;99.90;;;;;;4991099;28;20057;-82
2023/03/12 04:17:46;;;;;;;11.68;6.93;;;-0.20;99.90;;;;;;4988555;28;20037;-82
2023/03/12 04:20:12;;;;;;;13.88;6.80;;;0.00;99.90;;;;;;4986451;28;20044;-83
2023/03/12 04:22:38;;;;;;;12.43;6.85;;;-0.20;99.90;;;;;;4943035;28;20034;-83
2023/03/12 04:25:06;;;;;;;10.20;5.90;;;-0.20;99.90;;;;;;4974534;28;20580;-82
2023/03/12 04:27:32;;;;;;;11.50;7.50;;;-0.10;99.90;;;;;;4973792;28;20046;-82
2023/03/12 04:29:58;;;;;;;10.38;6.50;;;-0.20;99.90;;;;;;4990924;28;20038;-82
2023/03/12 04:32:24;;;;;;;13.25;7.13;;;-0.10;99.90;;;;;;4974981;28;20046;-82
2023/03/12 04:34:50;;;;;;;11.65;7.55;;;-0.10;99.90;;;;;;4988249;28;20423;-82
2023/03/12 04:37:15;;;;;;;9.27;6.40;;;-0.10;99.90;;;;;;4976553;28;20033;-82
2023/03/12 04:39:42;;;;;;;9.95;6.70;;;-0.10;99.90;;;;;;4976109;28;20391;-82
2023/03/12 04:42:09;;;;;;;10.85;6.90;;;-0.10;99.90;;;;;;4974753;28;20476;-82
2023/03/12 04:44:35;;;;;;;11.38;6.95;;;0.10;99.90;;;;;;4992743;28;20045;-82
2023/03/12 04:47:01;;;;;;;10.68;6.43;;;0.00;99.90;;;;;;4975168;28;20077;-82
2023/03/12 04:49:27;;;;;;;9.75;6.15;;;0.00;99.90;;;;;;4972710;28;20509;-82
2023/03/12 04:51:53;;;;;;;12.50;7.05;;;0.00;99.90;;;;;;4988211;28;20530;-82
2023/03/12 04:54:19;;;;;;;12.93;7.32;;;0.70;99.90;;;;;;4954982;28;20042;-82
2023/03/12 04:56:46;;;;;;;12.40;6.60;;;0.10;99.90;;;;;;4989639;28;20165;-83
2023/03/12 04:59:12;;;;;;;10.77;6.30;;;0.10;99.90;;;;;;4989782;28;20038;-82
2023/03/12 05:01:38;;;;;;;13.02;6.63;;;0.10;99.90;;;;;;5008543;28;20120;-82
2023/03/12 05:04:05;;;;;;;10.63;6.35;;;0.10;99.90;;;;;;4974488;28;20180;-82
2023/03/12 05:06:31;;;;;;;11.43;6.95;;;0.10;99.90;;;;;;4987069;28;20042;-82
2023/03/12 05:08:56;;;;;;;17.58;7.50;;;0.10;99.90;;;;;;4985494;28;20045;-82
2023/03/12 05:11:23;;;;;;;12.00;6.68;;;0.90;99.90;;;;;;4973249;28;20095;-83
2023/03/12 05:13:49;;;;;;;12.13;7.22;;;0.10;99.90;;;;;;4961101;28;20046;-83
2023/03/12 05:16:16;;;;;;;13.00;7.18;;;0.10;99.90;;;;;;4994841;28;20041;-82
2023/03/12 05:18:43;;;;;;;16.08;6.85;;;0.70;99.90;;;;;;4990414;28;20050;-82
2023/03/12 05:21:15;;;;;;;14.25;6.30;;;0.20;99.90;;;;;;4957050;28;20046;-84
2023/03/12 05:23:42;;;;;;;10.32;6.70;;;0.20;99.90;;;;;;4978376;28;20045;-82
2023/03/12 05:26:21;;;;;;;9.85;6.38;;;0.20;99.90;;;;;;4987711;28;20502;-83
2023/03/12 05:28:48;;;;;;;15.82;6.40;;;0.20;99.90;;;;;;4983552;28;21599;-82
2023/03/12 05:31:14;;;;;;;10.68;6.22;;;0.30;99.90;;;;;;4974268;28;20034;-82
2023/03/12 05:33:40;;;;;;;9.60;6.18;;;1.20;99.90;;;;;;4987560;28;20518;-82
2023/03/12 05:36:06;;;;;;;12.75;6.70;;;0.30;99.90;;;;;;4973488;28;20042;-83
2023/03/12 05:38:32;;;;;;;7.95;5.95;;;0.30;99.90;;;;;;4988018;28;20510;-83
2023/03/12 05:40:58;;;;;;;13.40;7.35;;;0.30;99.90;;;;;;4990723;28;20034;-82
2023/03/12 05:43:26;;;;;;;9.95;6.22;;;0.30;99.90;;;;;;4975373;28;20034;-83
2023/03/12 05:45:52;;;;;;;8.77;6.22;;;0.30;99.90;;;;;;4991461;28;20068;-83
2023/03/12 05:48:18;;;;;;;8.43;6.60;;;0.30;99.90;;;;;;4970429;28;21114;-83
2023/03/12 05:50:44;;;;;;;9.35;5.90;;;0.90;99.90;;;;;;4971868;28;20042;-83
2023/03/12 05:53:10;;;;;;;8.75;6.70;;;0.30;99.90;;;;;;4988598;28;20045;-82
2023/03/12 05:55:38;;;;;;;10.23;6.43;;;0.40;99.90;;;;;;4973895;28;20438;-82
2023/03/12 05:58:06;;;;;;;8.90;6.05;;;0.40;99.90;;;;;;4972876;28;20041;-82
2023/03/12 06:00:37;;;;;;;8.98;6.50;;;0.40;99.90;;;;;;4975081;28;20036;-82
2023/03/12 06:03:06;;;;;;;11.48;5.90;;;0.40;99.90;;;;;;4973356;28;20503;-82
2023/03/12 06:05:33;;;;;;;11.45;7.25;;;0.40;99.90;;;;;;5005873;28;20495;-82
2023/03/12 06:07:59;;;;;;;8.82;5.88;;;0.50;99.90;;;;;;4971719;28;20046;-82
2023/03/12 06:10:26;;;;;;;11.45;6.20;;;0.50;99.90;;;;;;4976033;28;20523;-82
2023/03/12 06:12:52;;;;;;;11.77;6.55;;;0.50;99.90;;;;;;4994521;28;20073;-83
2023/03/12 06:15:18;;;;;;;12.73;6.55;;;0.50;99.90;;;;;;4991817;28;20123;-82
2023/03/12 06:17:43;;;;;;;9.82;6.80;;;0.50;99.90;;;;;;4995209;28;20044;-83
2023/03/12 06:20:10;;;;;;;11.57;7.80;;;0.50;99.90;;;;;;4976442;28;20034;-83
2023/03/12 06:22:36;;;;;;;10.60;6.35;;;0.60;99.90;;;;;;4962068;28;20672;-82
2023/03/12 06:25:02;;;;;;;8.35;6.50;;;0.60;99.90;;;;;;4942741;28;20045;-83
2023/03/12 06:27:28;;;;;;;9.75;6.40;;;0.60;99.90;;;;;;4974661;28;20098;-83
2023/03/12 06:29:53;;;;;;;8.23;6.45;;;1.40;99.90;;;;;;4976955;28;20558;-83
2023/03/12 06:32:19;;;;;;;9.70;6.43;;;0.70;99.90;;;;;;4995517;28;20047;-82
2023/03/12 06:34:45;;;;;;;9.88;6.97;;;0.70;99.90;;;;;;4957972;28;20467;-83
2023/03/12 06:37:11;;;;;;;9.02;6.53;;;0.70;99.90;;;;;;4990415;28;20053;-82
2023/03/12 06:39:37;;;;;;;8.60;6.57;;;1.00;99.90;;;;;;4976141;28;20503;-83
2023/03/12 06:42:04;;;;;;;10.52;6.63;;;0.70;99.90;;;;;;4990767;28;20480;-82
2023/03/12 06:44:30;;;;;;;14.57;6.88;;;0.70;99.90;;;;;;4996089;28;20068;-82
2023/03/12 06:46:56;;;;;;;13.82;7.40;;;0.70;99.90;;;;;;4960908;28;20058;-82
2023/03/12 06:49:23;;;;;;;11.45;6.57;;;0.70;99.90;;;;;;4990695;28;20129;-82
2023/03/12 06:51:49;;;;;;;9.52;6.68;;;0.70;99.90;;;;;;4991657;28;20038;-87
2023/03/12 06:54:15;;;;;;;10.63;6.85;;;0.70;99.90;;;;;;4977199;28;20410;-82
2023/03/12 06:56:41;;;;;;;12.20;7.28;;;1.50;99.90;;;;;;4994960;28;20041;-82
2023/03/12 06:59:06;;;;;;;10.82;6.68;;;0.70;99.90;;;;;;4993123;28;20046;-82
2023/03/12 07:01:32;;;;;;;10.25;7.28;;;0.70;99.90;;;;;;4991750;28;20034;-81
2023/03/12 07:03:58;;;;;;;12.35;6.93;;;0.70;99.90;;;;;;4991488;28;20049;-82
2023/03/12 07:06:24;;;;;;;11.00;6.57;;;0.70;99.90;;;;;;4976061;28;20034;-82
2023/03/12 07:08:51;;;;;;;14.07;7.35;;;0.60;99.90;;;;;;4976521;28;20050;-82
2023/03/12 07:11:17;;;;;;;12.40;7.30;;;0.60;99.90;;;;;;4995619;28;20037;-81
2023/03/12 07:13:43;;;;;;;10.13;7.10;;;0.60;99.90;;;;;;5017431;28;20045;-82
2023/03/12 07:16:09;;;;;;;11.48;6.97;;;0.60;99.90;;;;;;4979622;28;20034;-81
2023/03/12 07:18:35;;;;;;;11.80;7.28;;;0.60;99.90;;;;;;4992539;28;20042;-81
2023/03/12 07:21:01;;;;;;;11.93;7.65;;;0.60;99.90;;;;;;4991174;28;20042;-81
2023/03/12 07:23:26;;;;;;;11.35;7.38;;;0.60;99.90;;;;;;4973865;28;20053;-81
2023/03/12 07:25:52;;;;;;;9.00;6.65;;;0.70;99.90;;;;;;4987150;28;20042;-81
2023/03/12 07:28:19;;;;;;;11.27;7.00;;;0.80;99.90;;;;;;4976494;28;20053;-81
2023/03/12 07:30:49;;;;;;;10.75;7.10;;;0.60;99.90;;;;;;4994046;28;20038;-81
2023/03/12 07:33:17;;;;;;;10.18;7.30;;;0.60;99.90;;;;;;4982556;28;20037;-81
2023/03/12 07:35:44;;;;;;;13.52;7.45;;;0.60;99.90;;;;;;4997762;28;20054;-81
2023/03/12 07:38:09;;;;;;;13.57;7.20;;;0.70;99.90;;;;;;4991581;28;20042;-81
2023/03/12 07:40:36;;;;;;;14.27;7.43;;;0.70;99.90;;;;;;4979541;28;20478;-82
2023/03/12 07:43:05;;;;;;;12.68;7.93;;;0.70;99.90;;;;;;5016672;28;20121;-81
2023/03/12 07:45:31;;;;;;;11.48;7.60;;;0.70;99.90;;;;;;4992914;28;20031;-81
2023/03/12 07:47:57;;;;;;;16.25;8.73;;;0.60;99.90;;;;;;4971384;28;20038;-81
2023/03/12 07:50:23;;;;;;;10.73;7.32;;;0.60;99.90;;;;;;4979168;28;20038;-81
2023/03/12 07:52:48;;;;;;;13.60;8.68;;;0.60;99.90;;;;;;4991202;28;20043;-81
2023/03/12 07:55:15;;;;;;;9.52;7.45;;;0.50;99.90;;;;;;4985155;28;20100;-82
2023/03/12 07:57:40;;;;;;;13.70;8.98;;;0.60;99.90;;;;;;4978279;28;20411;-81
2023/03/12 08:00:09;;;;;;;12.38;8.15;;;0.60;99.90;;;;;;4993510;28;20038;-81
2023/03/12 08:02:34;;;;;;;21.27;9.25;;;0.60;99.90;;;;;;5006513;28;20494;-82
2023/03/12 08:05:00;;;;;;;14.20;8.85;;;0.60;99.90;;;;;;4993136;28;20034;-81
2023/03/12 08:07:31;;;;;;;13.95;7.15;;;0.60;99.90;;;;;;4991269;28;20046;-82
2023/03/12 08:09:57;;;;;;;10.75;7.93;;;0.50;99.90;;;;;;4973608;28;20030;-82
2023/03/12 08:12:23;;;;;;;11.57;8.32;;;0.60;99.90;;;;;;4957480;28;20026;-82
2023/03/12 08:14:49;;;;;;;11.85;8.00;;;0.60;99.90;;;;;;5001681;28;20121;-81
2023/03/12 08:17:14;;;;;;;14.43;8.45;;;0.50;99.90;;;;;;4990488;28;20038;-81
2023/03/12 08:19:41;;;;;;;15.50;8.48;;;0.70;99.90;;;;;;4979640;28;20044;-82
2023/03/12 08:22:07;;;;;;;11.77;8.95;;;1.30;99.90;;;;;;4996824;28;20049;-82
2023/03/12 08:24:32;;;;;;;14.75;7.80;;;0.50;99.90;;;;;;4990628;28;20420;-82
2023/03/12 08:26:58;;;;;;;11.57;8.05;;;0.50;99.90;;;;;;4990528;28;20038;-82
2023/03/12 08:29:24;;;;;;;15.00;9.05;;;0.50;99.90;;;;;;4990696;28;20050;-82
2023/03/12 08:31:50;;;;;;;9.48;7.00;;;0.50;99.90;;;;;;4974135;28;20046;-82
2023/03/12 08:34:15;;;;;;;13.02;8.73;;;1.30;99.90;;;;;;4996381;28;20034;-82
2023/03/12 08:36:41;;;;;;;10.65;8.05;;;0.50;99.90;;;;;;4984646;28;20093;-82
2023/03/12 08:39:06;;;;;;;13.30;8.68;;;0.50;99.90;;;;;;4990362;28;20034;-82
2023/03/12 08:41:32;;;;;;;12.82;8.13;;;0.50;99.90;;;;;;4990416;28;20092;-82
2023/03/12 08:43:58;;;;;;;12.77;8.90;;;0.50;99.90;;;;;;4984914;28;20121;-82
2023/03/12 08:46:23;;;;;;;15.02;8.80;;;0.60;99.90;;;;;;4990471;28;20050;-82
2023/03/12 08:48:49;;;;;;;14.02;9.48;;;0.50;99.90;;;;;;4973530;28;20148;-82
2023/03/12 08:51:15;;;;;;;11.70;8.52;;;0.60;99.90;;;;;;4989338;28;20038;-82
2023/03/12 08:53:41;;;;;;;17.88;10.48;;;0.60;99.90;;;;;;4989865;28;20448;-82
2023/03/12 08:56:07;;;;;;;13.73;8.75;;;0.60;99.90;;;;;;4975031;28;20089;-82
2023/03/12 08:58:33;;;;;;;11.32;8.73;;;0.80;99.90;;;;;;4974809;28;20078;-82
2023/03/12 09:00:58;;;;;;;13.50;8.60;;;0.70;99.90;;;;;;4980064;28;20137;-82
2023/03/12 09:03:25;;;;;;;11.70;8.80;;;0.70;99.90;;;;;;4989026;28;20030;-83
2023/03/12 09:06:01;;;;;;;12.60;9.20;;;0.60;99.90;;;;;;4956865;28;20727;-83
2023/03/12 09:08:27;;;;;;;12.57;9.00;;;1.20;99.90;;;;;;4973637;28;20054;-83
2023/03/12 09:10:53;;;;;;;15.93;9.95;;;1.00;99.90;;;;;;4972322;28;20065;-86
2023/03/12 09:13:18;;;;;;;14.75;9.68;;;0.60;99.90;;;;;;4976535;28;20050;-83
2023/03/12 09:15:44;;;;;;;18.77;10.80;;;0.70;99.90;;;;;;4973951;28;20076;-83
2023/03/12 09:18:09;;;;;;;13.95;9.82;;;0.70;99.90;;;;;;4977462;28;20044;-84
2023/03/12 09:20:35;;;;;;;15.57;10.52;;;0.70;99.90;;;;;;4973774;28;20191;-84
2023/03/12 09:23:01;;;;;;;15.13;9.90;;;0.70;99.90;;;;;;4989309;28;20030;-84
2023/03/12 09:25:27;;;;;;;19.13;10.57;;;0.70;99.90;;;;;;4985371;28;20037;-84
2023/03/12 09:27:52;;;;;;;16.45;11.18;;;0.60;99.90;;;;;;4974743;28;20454;-84
2023/03/12 09:30:20;;;;;;;16.15;11.43;;;0.70;99.90;;;;;;4974991;28;20553;-81
2023/03/12 09:32:46;;;;;;;18.67;11.60;;;1.20;99.90;;;;;;4999305;28;20077;-81
2023/03/12 09:35:14;;;;;;;21.75;12.50;;;0.70;99.90;;;;;;4988721;28;20161;-82
2023/03/12 09:37:40;;;;;;;25.45;13.77;;;0.80;99.90;;;;;;4987821;28;20129;-82
2023/03/12 09:40:06;;;;;;;14.07;10.27;;;0.80;99.90;;;;;;4998645;28;20117;-82
2023/03/12 09:42:54;;;;;;;21.90;13.68;;;0.80;99.90;;;;;;4990637;28;20038;-82
2023/03/12 09:45:30;;;;;;;19.38;12.65;;;0.80;99.90;;;;;;4995101;28;20109;-82
2023/03/12 09:48:02;;;;;;;19.15;13.30;;;0.80;99.90;;;;;;5011348;28;20512;-81
2023/03/12 09:50:39;;;;;;;;;;;0.90;99.90;;;;;;5003483;28;20058;-82
2023/03/12 09:53:26;;;;;;;16.75;11.63;;;0.90;99.90;;;;;;4972129;28;20614;-82
2023/03/12 09:55:54;;;;;;;22.90;13.13;;;0.90;99.90;;;;;;4994824;28;20077;-81
2023/03/12 09:58:34;;;;;;;21.48;13.88;;;0.90;99.90;;;;;;4987459;28;20518;-81
2023/03/12 10:01:49;;;;;;;21.20;13.07;;;1.00;99.90;;;;;;4989125;28;20424;-82
2023/03/12 10:04:25;;;;;;;17.58;12.38;;;0.90;99.90;;;;;;4935326;28;20031;-82
2023/03/12 10:07:08;;;;;;;19.27;12.65;;;0.90;99.90;;;;;;4966865;28;20049;-82
2023/03/12 10:10:21;;;;;;;19.30;12.80;;;0.90;99.90;;;;;;4997214;28;20040;-82
2023/03/12 10:13:09;;;;;;;29.92;14.27;;;0.90;99.90;;;;;;4954787;28;20064;-81
2023/03/12 10:15:47;;;;;;;24.67;13.85;;;1.00;99.90;;;;;;4990053;28;20088;-82
2023/03/12 10:18:53;;;;;;;24.20;14.25;;;1.10;99.90;;;;;;4989370;28;20042;-82
2023/03/12 10:21:23;;;;;;;18.80;13.15;;;1.00;99.90;;;;;;4988697;28;20086;-82
2023/03/12 10:24:01;;;;;;;20.25;13.68;;;1.30;99.90;;;;;;4994744;28;20039;-82
2023/03/12 10:26:44;;;;;;;20.25;13.48;;;1.00;99.90;;;;;;4988011;28;20744;-82
2023/03/12 10:29:19;;;;;;;22.00;14.63;;;1.00;99.90;;;;;;4987952;28;20124;-81
2023/03/12 10:32:05;;;;;;;20.33;13.35;;;1.00;99.90;;;;;;4989101;28;20117;-82
2023/03/12 10:34:41;;;;;;;25.95;14.00;;;1.10;99.90;;;;;;4978438;28;20046;-82
2023/03/12 10:37:29;;;;;;;20.77;14.35;;;1.60;99.90;;;;;;4988341;28;20041;-82
2023/03/12 10:39:55;;;;;;;20.60;13.82;;;1.30;99.90;;;;;;4979920;28;20078;-82
2023/03/12 10:42:24;;;;;;;22.85;14.60;;;2.10;99.90;;;;;;4972054;28;20069;-81
2023/03/12 10:45:34;;;;;;;25.33;15.10;;;1.20;99.90;;;;;;4989250;28;20053;-82
2023/03/12 10:48:12;;;;;;;24.27;14.73;;;1.20;99.90;;;;;;4988591;28;20042;-82
2023/03/12 10:50:39;;;;;;;24.67;15.48;;;1.30;99.90;;;;;;4975208;28;20038;-82
2023/03/12 10:53:21;;;;;;;24.33;15.45;;;1.30;99.90;;;;;;4972417;28;20399;-82
2023/03/12 10:56:13;;;;;;;32.47;16.55;;;1.40;99.90;;;;;;4996511;28;20148;-81
2023/03/12 10:58:44;;;;;;;29.65;15.80;;;1.40;99.90;;;;;;4994270;28;20034;-82
2023/03/12 11:01:25;;;;;;;23.17;14.25;;;1.50;99.90;;;;;;4992344;28;20041;-82
2023/03/12 11:03:53;;;;;;;22.08;15.40;;;2.60;99.90;;;;;;5000851;28;20042;-82
2023/03/12 11:06:29;;;;;;;22.52;14.43;;;1.60;99.90;;;;;;4994124;28;20507;-82
2023/03/12 11:09:16;;;;;;;24.10;15.07;;;1.60;99.90;;;;;;4999086;28;20439;-82
2023/03/12 11:11:44;;;;;;;23.58;15.85;;;2.00;99.90;;;;;;4975885;28;20126;-82
2023/03/12 11:14:11;;;;;;;25.08;14.82;;;1.70;99.90;;;;;;4974378;28;20050;-82
2023/03/12 11:16:38;;;;;;;27.20;14.75;;;1.80;99.90;;;;;;5002673;28;20046;-82
2023/03/12 11:19:06;;;;;;;24.77;16.08;;;1.80;99.90;;;;;;4961450;28;20121;-82
2023/03/12 11:21:39;;;;;;;26.20;16.90;;;1.80;99.90;;;;;;4991060;28;20173;-82
2023/03/12 11:24:11;;;;;;;25.75;15.98;;;1.80;99.90;;;;;;4996011;28;20101;-82
2023/03/12 11:26:49;;;;;;;28.58;17.33;;;1.90;99.90;;;;;;4992337;28;20057;-82
2023/03/12 11:29:47;;;;;;;25.45;15.57;;;1.90;99.90;;;;;;4991621;28;20046;-82
2023/03/12 11:32:40;;;;;;;26.38;16.40;;;2.00;99.90;;;;;;5000333;28;20038;-82
2023/03/12 11:35:10;;;;;;;;;;;2.00;99.90;;;;;;5004842;28;20042;-82
2023/03/12 11:38:13;;;;;;;26.52;16.35;;;2.10;99.90;;;;;;4974880;28;19972;-82
2023/03/12 11:40:58;;;;;;;;;;;2.30;99.90;;;;;;4996563;28;20046;-82
2023/03/12 11:43:51;;;;;;;32.85;19.63;;;2.40;99.90;;;;;;4996005;28;19925;-82
2023/03/12 11:46:17;;;;;;;;;;;2.40;99.90;;;;;;5008131;28;20078;-82
2023/03/12 11:49:20;;;;;;;34.22;17.95;;;1.70;99.90;;;;;;4973643;28;19987;-82
2023/03/12 11:52:10;;;;;;;28.52;16.33;;;2.60;99.90;;;;;;4990026;28;20078;-82
2023/03/12 11:55:01;;;;;;;31.88;18.30;;;2.60;99.90;;;;;;4993038;28;20034;-82
2023/03/12 11:57:55;;;;;;;33.85;19.45;;;2.70;99.90;;;;;;4988889;28;20047;-82
2023/03/12 12:00:48;;;;;;;31.42;18.20;;;2.80;99.90;;;;;;5005155;28;20081;-82
2023/03/12 12:03:23;;;;;;;28.20;15.63;;;2.90;99.90;;;;;;4990144;28;20041;-83
2023/03/12 12:06:30;;;;;;;30.10;18.60;;;3.00;99.90;;;;;;4988167;28;20038;-82
2023/03/12 12:09:22;;;;;;;31.80;18.27;;;3.10;99.90;;;;;;4978636;28;20050;-81
2023/03/12 12:12:00;;;;;;;37.10;18.35;;;3.20;99.90;;;;;;4987591;28;20046;-82
2023/03/12 12:14:53;;;;;;;35.60;17.83;;;3.30;99.90;;;;;;4988950;28;20045;-82
2023/03/12 12:17:22;;;;;;;;;;;3.40;99.90;;;;;;4992650;28;20046;-82
2023/03/12 12:19:48;;;;;;;27.55;16.52;;;3.50;99.90;;;;;;4971918;28;19949;-82
2023/03/12 12:22:32;;;;;;;32.55;17.48;;;3.60;99.90;;;;;;4992284;28;20035;-82
2023/03/12 12:25:22;;;;;;;29.65;17.02;;;3.70;99.90;;;;;;4990153;28;20170;-83
2023/03/12 12:27:58;;;;;;;31.58;17.48;;;3.70;99.90;;;;;;4989161;28;20054;-82
2023/03/12 12:30:52;;;;;;;29.00;16.95;;;3.90;99.90;;;;;;4988605;28;20042;-82
2023/03/12 12:33:17;;;;;;;34.67;16.85;;;3.90;99.90;;;;;;5001801;28;20088;-82
2023/03/12 12:35:44;;;;;;;31.23;17.98;;;4.70;99.90;;;;;;4995897;28;20437;-83
2023/03/12 12:38:35;;;;;;;30.40;16.33;;;4.10;99.90;;;;;;4993453;28;20054;-83
2023/03/12 12:41:26;;;;;;;35.65;16.30;;;4.30;99.90;;;;;;4991584;28;20122;-83
2023/03/12 12:43:57;;;;;;;34.28;16.45;;;4.50;99.90;;;;;;4993397;28;20406;-82
2023/03/12 12:46:40;;;;;;;35.80;16.57;;;4.60;99.90;;;;;;4947937;28;1126184;-83
2023/03/12 12:49:29;;;;;;;33.53;17.23;;;4.80;99.90;;;;;;4998814;28;20069;-82
2023/03/12 12:52:02;;;;;;;35.28;17.38;;;4.70;99.90;;;;;;4989328;28;20042;-83
2023/03/12 12:54:50;;;;;;;;;;;4.80;99.90;;;;;;4989204;28;20570;-83
2023/03/12 12:57:27;;;;;;;28.63;13.45;;;4.90;99.90;;;;;;4982150;28;20016;-83
2023/03/12 12:59:56;;;;;;;25.95;13.18;;;5.00;99.90;;;;;;4987565;28;20534;-82
2023/03/12 13:02:29;;;;;;;30.00;15.27;;;5.10;99.90;;;;;;4988036;28;20092;-83